Etusivu
METAR-TAF:

METAR-TAF

Lentoasemat :

Mullan Pass Vor, Idaho, Yhdysvallat

Leveyspiiri: 47-27-15N, Pituuspiiri: 115-40-11W, korkeus merenpinnasta: 1829 m

Tämänhetkinen sää

Tämä raportti tehtiin 46 minuuttia sitten, kello 21.53 UTC
Tuuli 5 kn eri suunnista
Lämpötila 17°C
Kosteus 48%
Ilmanpaine 1021 hPa
Näkyvyys: 16.1 km
Hajanaisia pilviä 7000 ft:n korkeudessa
Hajanaisia pilviä 9000 ft:n korkeudessa

METAR: KMLP 152153Z AUTO VRB05KT 10SM SCT070 SCT090 17/06 A3015 RMK AO2 SLP119 T01720056 $

Aika: 15:39 (22:39 UTC)


TAF: puuttuu

Säähavainnot ja -ennusteet yli 4000 lentoasemalta (METAR- ja TAF-raportit).

Käytössä olevat sääasemat on merkitty karttaan keltaisilla ja punaisilla pisteillä.

Aseta hiiri pisteen päälle nähdäksesi sääaseman nimen.

Klikkaa sitten nähdäksesi säähavainnot ja -ennusteet.

Kartan vaihtaminen: klikkaa mustalla rastilla varustettuja vihreitä pisteitä, niin voit zoomata sisään; viivalla varustettua vihreää pistettä, niin voit zoomata ulos tai vihreitä nuolia, niin pääset viereisille kartoille.


METAR-TAF: